NCAR-RAP Real-Time Weather Data

Output produced by METARs form (23 June 2018  19:37 UTC)
found at http://weather.rap.ucar.edu/surface/
 
RJKA 231000Z 21015KT 9000 FEW020 BKN/// 27/26 Q1008
RJKA 230900Z 21017KT 9999 FEW020 BKN/// 28/26 Q1007
RJKA 230800Z 23016KT 9999 FEW020 BKN/// 28/26 Q1007
RJKA 230700Z 20017KT 9999 FEW010 SCT170 BKN/// 29/26 Q1007
RJKA 230600Z 20016KT 9999 FEW020 SCT170 BKN/// 30/26 Q1007
RJKA 230500Z 21014KT 9999 FEW025 SCT170 BKN/// 31/26 Q1007
RJKA 230400Z 21015KT 9999 FEW030 SCT160 BKN/// 29/26 Q1008
RJKA 230300Z 20017KT 9999 FEW030 BKN/// 29/26 Q1008
RJKA 230200Z 21015KT 9999 FEW030 BKN/// 30/26 Q1008
RJKA 230100Z 22015KT 8000 FEW020 SCT030 BKN/// 28/26 Q1008
RJKA 230000Z 21015KT 8000 -SHRA FEW025 SCT030 BKN/// 28/26 Q1008
RJKA 222300Z 21016KT 8000 FEW020 SCT035 BKN/// 27/26 Q1008
RJKA 222200Z 22015KT 7000 FEW010 SCT025 BKN150 27/26 Q1007
RJKA 222130Z 22015KT 7000 FEW005 SCT025 BKN150 27/26 Q1007
RJKA 221000Z 20013KT 9999 FEW010 BKN/// 27/26 Q1007
RJKA 220900Z 20010KT 8000 -RA FEW025 SCT050 BKN160 27/26 Q1007
RJKA 220800Z 22010KT 9999 -RA FEW025 BKN150 BKN170 27/26 Q1007
RJKA 220700Z 23007KT 9999 FEW025 SCT160 BKN/// 27/26 Q1007
RJKA 220600Z 22010KT 9999 FEW015 SCT030 BKN170 27/26 Q1007
RJKA 220500Z 23010KT 9999 -SHRA FEW004 SCT020 BKN040 27/26 Q1007
RJKA 220414Z 24010KT 9999 -SHRA FEW005 SCT010 BKN060 27/26 Q1007 RMK 1ST005 3CU010 7SC060 A2976
RJKA 220405Z 23011KT 9999 -SHRA FEW004 BKN007 BKN013 27/26 Q1008 RMK 1ST004 5ST007 6CU013 A2977
RJKA 220400Z 23011KT 9999 FEW004 SCT009 BKN040 27/26 Q1008
RJKA 220300Z 22015KT 9999 FEW010 BKN160 BKN/// 28/26 Q1007
RJKA 220200Z 21013KT 9999 FEW005 SCT015 BKN/// 28/26 Q1007
RJKA 220100Z 21014KT 8000 FEW005 SCT045 BKN180 27/26 Q1007
RJKA 220000Z 21015KT 7000 FEW003 SCT050 BKN160 27/26 Q1008
RJKA 212300Z 22015KT 5000 -SHRA FEW005 SCT020 BKN050 27/26 Q1007
RJKA 212200Z 21014KT 6000 -SHRA FEW005 SCT015 BKN060 26/26 Q1008
RJKA 212130Z 21014KT 9999 -SHRA FEW005 SCT015 BKN060 26/26 Q1008
RJKA 211000Z 22003KT 9999 FEW020 SCT030 BKN/// 25/24 Q1007
RJKA 210900Z 27004KT 9999 -SHRA FEW020 SCT035 BKN150 25/24 Q1007
RJKA 210800Z 25005KT 210V340 8000 -SHRA FEW008 SCT015 BKN060 26/25 Q1007